Time;durP1;ratioP1;P1;durP2;ratioP2;P2;SDS_P1;SDS_P2;PMS_P1;PMS_P2;Temp;Humidity;BMP_temperature;BMP_pressure;BME280_temperature;BME280_humidity;BME280_pressure;Samples;Min_cycle;Max_cycle;Signal;HPM_P1;HPM_P2
2023/12/31 00:01:11;;;;;;;4.88;1.98;;;;;;;;;;10307491;28;20540;-70
2023/12/31 00:06:12;;;;;;;1.60;1.50;;;;;;;;;;10299731;28;20266;-70
2023/12/31 00:11:13;;;;;;;1.45;1.35;;;;;;;;;;10299439;28;20290;-69
2023/12/31 00:16:15;;;;;;;2.25;1.42;;;;;;;;;;10300539;28;20331;-70
2023/12/31 00:21:16;;;;;;;1.60;1.25;;;;;;;;;;10317180;28;20656;-70
2023/12/31 00:26:17;;;;;;;3.63;1.20;;;;;;;;;;10277131;28;20220;-69
2023/12/31 00:31:18;;;;;;;5.93;0.70;;;;;;;;;;10295832;28;20286;-69
2023/12/31 00:36:19;;;;;;;2.20;0.85;;;;;;;;;;10300214;28;20208;-69
2023/12/31 00:41:20;;;;;;;1.92;1.08;;;;;;;;;;10300942;28;20303;-70
2023/12/31 00:46:21;;;;;;;2.88;1.05;;;;;;;;;;10292206;28;20209;-70
2023/12/31 00:51:22;;;;;;;2.08;1.13;;;;;;;;;;10296073;28;20217;-70
2023/12/31 00:56:23;;;;;;;0.90;0.90;;;;;;;;;;10298165;28;20779;-70
2023/12/31 01:01:24;;;;;;;3.25;1.10;;;;;;;;;;10299481;28;20220;-69
2023/12/31 01:06:25;;;;;;;1.10;1.00;;;;;;;;;;10296980;28;20811;-70
2023/12/31 01:11:27;;;;;;;4.72;1.23;;;;;;;;;;10300617;28;20686;-69
2023/12/31 01:16:28;;;;;;;2.88;1.15;;;;;;;;;;10301231;28;20212;-69
2023/12/31 01:21:29;;;;;;;1.88;1.17;;;;;;;;;;10311102;28;20250;-69
2023/12/31 01:26:30;;;;;;;3.08;1.27;;;;;;;;;;10295995;28;20213;-69
2023/12/31 01:31:31;;;;;;;5.80;1.40;;;;;;;;;;10289591;28;20232;-70
2023/12/31 01:36:32;;;;;;;3.88;2.38;;;;;;;;;;10294374;28;20614;-70
2023/12/31 01:41:33;;;;;;;2.22;1.80;;;;;;;;;;10299987;28;20217;-70
2023/12/31 01:46:35;;;;;;;2.35;1.75;;;;;;;;;;10294946;28;20217;-69
2023/12/31 01:51:36;;;;;;;3.40;1.33;;;;;;;;;;10296254;28;20290;-70
2023/12/31 01:56:39;;;;;;;1.38;1.17;;;;;;;;;;10296689;28;20232;-68
2023/12/31 02:01:40;;;;;;;2.85;1.48;;;;;;;;;;10298334;28;20216;-69
2023/12/31 02:06:41;;;;;;;2.28;1.45;;;;;;;;;;10312542;28;20219;-69
2023/12/31 02:11:43;;;;;;;1.50;1.42;;;;;;;;;;10295977;28;20232;-69
2023/12/31 02:16:46;;;;;;;2.53;1.30;;;;;;;;;;10301216;28;20244;-69
2023/12/31 02:21:47;;;;;;;5.50;1.75;;;;;;;;;;10305613;28;20315;-69
2023/12/31 02:26:48;;;;;;;4.25;1.33;;;;;;;;;;10291565;28;20576;-69
2023/12/31 02:31:49;;;;;;;4.22;1.27;;;;;;;;;;10288901;28;20216;-69
2023/12/31 02:36:50;;;;;;;1.30;1.30;;;;;;;;;;10301927;28;20882;-69
2023/12/31 02:41:51;;;;;;;1.05;0.95;;;;;;;;;;10284120;28;20263;-69
2023/12/31 02:46:52;;;;;;;2.97;1.20;;;;;;;;;;10291429;28;20259;-69
2023/12/31 02:51:54;;;;;;;3.97;1.30;;;;;;;;;;10281361;28;20224;-69
2023/12/31 02:56:55;;;;;;;2.38;1.25;;;;;;;;;;10291435;28;20220;-69
2023/12/31 03:01:56;;;;;;;1.35;1.25;;;;;;;;;;10287931;28;20726;-69
2023/12/31 03:06:57;;;;;;;2.28;1.27;;;;;;;;;;10284436;28;20231;-70
2023/12/31 03:11:58;;;;;;;4.07;1.33;;;;;;;;;;10285977;28;20404;-69
2023/12/31 03:16:59;;;;;;;3.22;1.40;;;;;;;;;;10288242;28;20678;-69
2023/12/31 03:22:00;;;;;;;1.55;1.13;;;;;;;;;;10288157;28;20217;-68
2023/12/31 03:27:02;;;;;;;1.10;1.00;;;;;;;;;;10284139;28;20694;-71
2023/12/31 03:32:03;;;;;;;2.30;1.27;;;;;;;;;;10285794;28;20816;-69
2023/12/31 03:37:04;;;;;;;1.30;1.20;;;;;;;;;;10306945;28;20807;-69
2023/12/31 03:42:05;;;;;;;1.35;0.90;;;;;;;;;;10296100;28;20217;-68
2023/12/31 03:47:07;;;;;;;2.15;1.40;;;;;;;;;;10292278;28;20209;-68
2023/12/31 03:52:08;;;;;;;2.15;1.30;;;;;;;;;;10280380;28;20256;-69
2023/12/31 03:57:09;;;;;;;3.92;1.38;;;;;;;;;;10292414;28;20810;-69
2023/12/31 04:02:10;;;;;;;4.50;1.88;;;;;;;;;;10299294;28;20296;-69
2023/12/31 04:07:11;;;;;;;1.42;1.15;;;;;;;;;;10291651;28;20670;-70
2023/12/31 04:12:12;;;;;;;4.13;1.70;;;;;;;;;;10288248;28;20232;-69
2023/12/31 04:17:13;;;;;;;2.90;1.33;;;;;;;;;;10298084;28;20220;-70
2023/12/31 04:22:14;;;;;;;3.95;1.13;;;;;;;;;;10287609;28;20390;-70
2023/12/31 04:27:15;;;;;;;1.80;1.42;;;;;;;;;;10286970;28;20326;-69
2023/12/31 04:32:16;;;;;;;1.52;1.38;;;;;;;;;;10292878;28;20307;-69
2023/12/31 04:37:19;;;;;;;4.78;1.58;;;;;;;;;;10291704;28;20216;-70
2023/12/31 04:42:20;;;;;;;3.17;1.73;;;;;;;;;;10288325;28;20695;-69
2023/12/31 04:47:21;;;;;;;2.42;1.75;;;;;;;;;;10289699;28;20212;-69
2023/12/31 04:52:23;;;;;;;5.65;2.00;;;;;;;;;;10310659;28;20229;-69
2023/12/31 04:57:24;;;;;;;1.63;1.52;;;;;;;;;;10303019;28;20217;-70
2023/12/31 05:02:26;;;;;;;3.75;1.85;;;;;;;;;;10278510;28;20315;-69
2023/12/31 05:07:27;;;;;;;3.28;1.60;;;;;;;;;;10288722;28;20255;-69
2023/12/31 05:12:28;;;;;;;2.20;1.92;;;;;;;;;;10288584;28;20221;-69
2023/12/31 05:17:29;;;;;;;3.50;1.90;;;;;;;;;;10297536;28;20220;-69
2023/12/31 05:22:30;;;;;;;4.15;1.60;;;;;;;;;;10295693;28;20209;-69
2023/12/31 05:27:31;;;;;;;2.05;1.88;;;;;;;;;;10294455;28;20271;-70
2023/12/31 05:32:32;;;;;;;1.95;1.73;;;;;;;;;;10295694;28;20224;-69
2023/12/31 05:37:33;;;;;;;4.53;1.80;;;;;;;;;;10300793;28;20221;-70
2023/12/31 05:42:34;;;;;;;2.05;1.95;;;;;;;;;;10314594;28;20773;-70
2023/12/31 05:47:35;;;;;;;2.60;1.45;;;;;;;;;;10313440;28;20220;-70
2023/12/31 05:52:36;;;;;;;2.47;1.40;;;;;;;;;;10328193;28;20231;-70
2023/12/31 05:57:39;;;;;;;1.35;1.23;;;;;;;;;;10328378;28;20215;-70
2023/12/31 06:02:40;;;;;;;3.67;1.42;;;;;;;;;;10327325;28;20443;-70
2023/12/31 06:07:41;;;;;;;4.80;1.35;;;;;;;;;;10325962;28;20306;-70
2023/12/31 06:12:42;;;;;;;2.75;1.70;;;;;;;;;;10319050;28;20224;-70
2023/12/31 06:17:43;;;;;;;2.58;0.80;;;;;;;;;;10320921;28;20610;-69
2023/12/31 06:22:44;;;;;;;1.58;1.45;;;;;;;;;;10324422;28;20223;-70
2023/12/31 06:27:45;;;;;;;0.95;0.95;;;;;;;;;;10327315;28;20232;-70
2023/12/31 06:32:46;;;;;;;2.53;1.40;;;;;;;;;;10315994;28;20224;-69
2023/12/31 06:37:47;;;;;;;1.38;1.15;;;;;;;;;;10317188;28;20225;-70
2023/12/31 06:42:48;;;;;;;1.00;1.00;;;;;;;;;;10318788;28;20225;-70
2023/12/31 06:47:49;;;;;;;4.35;1.27;;;;;;;;;;10313170;28;20223;-70
2023/12/31 06:52:50;;;;;;;1.27;0.95;;;;;;;;;;10289833;28;20221;-70
2023/12/31 06:57:51;;;;;;;6.18;1.70;;;;;;;;;;10295186;28;20221;-70
2023/12/31 07:02:52;;;;;;;2.08;1.33;;;;;;;;;;10297094;28;20751;-69
2023/12/31 07:07:53;;;;;;;1.25;1.25;;;;;;;;;;10292071;28;20854;-69
2023/12/31 07:12:54;;;;;;;0.80;0.80;;;;;;;;;;10289804;28;20315;-70
2023/12/31 07:17:55;;;;;;;1.40;1.17;;;;;;;;;;10295092;28;20717;-69
2023/12/31 07:22:57;;;;;;;1.02;1.00;;;;;;;;;;10304557;28;20249;-69
2023/12/31 07:27:58;;;;;;;1.02;1.02;;;;;;;;;;10284090;28;20298;-69
2023/12/31 07:32:59;;;;;;;1.42;1.00;;;;;;;;;;10285533;28;20217;-69
2023/12/31 07:38:03;;;;;;;1.20;1.13;;;;;;;;;;10285975;28;20228;-71
2023/12/31 07:43:04;;;;;;;3.85;1.48;;;;;;;;;;10291838;28;20648;-69
2023/12/31 07:48:08;;;;;;;1.10;1.10;;;;;;;;;;10280647;28;20324;-69
2023/12/31 07:53:09;;;;;;;2.83;1.17;;;;;;;;;;10288287;28;20828;-69
2023/12/31 07:58:10;;;;;;;2.05;1.50;;;;;;;;;;10299145;28;20221;-69
2023/12/31 08:03:11;;;;;;;1.17;1.08;;;;;;;;;;10281882;28;20848;-69
2023/12/31 08:08:12;;;;;;;1.35;1.02;;;;;;;;;;10280642;28;20244;-69
2023/12/31 08:13:13;;;;;;;1.90;1.23;;;;;;;;;;10280341;28;20228;-70
2023/12/31 08:18:14;;;;;;;3.03;1.35;;;;;;;;;;10298752;28;20224;-71
2023/12/31 08:23:16;;;;;;;0.93;0.93;;;;;;;;;;10281360;28;20221;-71
2023/12/31 08:28:17;;;;;;;1.20;1.20;;;;;;;;;;10303920;28;20240;-71
2023/12/31 08:33:18;;;;;;;1.30;1.00;;;;;;;;;;10286628;28;20604;-71
2023/12/31 08:38:19;;;;;;;1.20;0.90;;;;;;;;;;10296296;28;20220;-70
2023/12/31 08:43:20;;;;;;;0.90;0.90;;;;;;;;;;10304975;28;20264;-71
2023/12/31 08:48:21;;;;;;;1.20;1.15;;;;;;;;;;10289907;28;20929;-71
2023/12/31 08:53:22;;;;;;;0.80;0.80;;;;;;;;;;10289910;28;20723;-71
2023/12/31 08:58:23;;;;;;;1.83;1.40;;;;;;;;;;10297613;28;21790;-71
2023/12/31 09:03:24;;;;;;;1.10;1.00;;;;;;;;;;10308690;28;20228;-71
2023/12/31 09:08:25;;;;;;;0.93;0.93;;;;;;;;;;10285530;28;20217;-71
2023/12/31 09:13:27;;;;;;;0.80;0.80;;;;;;;;;;10294333;28;20710;-72
2023/12/31 09:18:28;;;;;;;1.73;1.38;;;;;;;;;;10295620;28;20308;-71
2023/12/31 09:23:29;;;;;;;1.45;1.35;;;;;;;;;;10292974;28;20213;-71
2023/12/31 09:28:30;;;;;;;1.48;0.93;;;;;;;;;;10285092;28;20241;-71
2023/12/31 09:33:32;;;;;;;1.58;1.17;;;;;;;;;;10288098;28;20213;-71
2023/12/31 09:38:33;;;;;;;1.63;1.23;;;;;;;;;;10292093;28;20271;-71
2023/12/31 09:43:35;;;;;;;1.65;1.65;;;;;;;;;;10295587;28;20591;-71
2023/12/31 09:48:37;;;;;;;3.08;2.78;;;;;;;;;;10289559;28;20224;-70
2023/12/31 09:53:39;;;;;;;9.77;7.57;;;;;;;;;;10285112;28;20219;-70
2023/12/31 09:58:40;;;;;;;4.38;2.70;;;;;;;;;;10288358;28;20224;-69
2023/12/31 10:03:44;;;;;;;3.20;2.95;;;;;;;;;;10294255;28;20296;-70
2023/12/31 10:08:45;;;;;;;4.13;2.13;;;;;;;;;;10285963;28;20248;-70
2023/12/31 10:13:46;;;;;;;2.10;1.50;;;;;;;;;;10292319;28;20208;-70
2023/12/31 10:18:47;;;;;;;4.20;1.63;;;;;;;;;;10291941;28;20221;-70
2023/12/31 10:23:48;;;;;;;2.63;2.47;;;;;;;;;;10306226;28;20275;-70
2023/12/31 10:28:49;;;;;;;2.20;2.10;;;;;;;;;;10296524;28;22200;-70
2023/12/31 10:33:51;;;;;;;3.92;2.88;;;;;;;;;;10300812;28;20239;-71
2023/12/31 10:38:52;;;;;;;1.90;1.80;;;;;;;;;;10296709;28;20300;-70
2023/12/31 10:43:55;;;;;;;2.38;2.28;;;;;;;;;;10313783;28;20205;-71
2023/12/31 10:49:03;;;;;;;1.48;1.42;;;;;;;;;;10304477;28;20224;-69
2023/12/31 10:54:10;;;;;;;1.92;1.77;;;;;;;;;;10327224;28;20304;-70
2023/12/31 10:59:12;;;;;;;1.65;1.55;;;;;;;;;;10297005;28;20225;-70
2023/12/31 11:04:14;;;;;;;3.08;1.50;;;;;;;;;;10303674;28;20283;-71
2023/12/31 11:09:15;;;;;;;2.55;1.92;;;;;;;;;;10299099;28;20224;-70
2023/12/31 11:14:17;;;;;;;4.03;2.42;;;;;;;;;;10302869;28;20745;-70
2023/12/31 11:19:37;;;;;;;2.65;2.50;;;;;;;;;;10295344;28;20640;-70
2023/12/31 11:24:38;;;;;;;3.83;2.60;;;;;;;;;;10305672;28;20220;-70
2023/12/31 11:29:39;;;;;;;2.08;1.98;;;;;;;;;;10311071;28;20282;-71
2023/12/31 11:34:41;;;;;;;1.92;1.83;;;;;;;;;;10303312;28;20615;-71
2023/12/31 11:39:46;;;;;;;2.38;2.20;;;;;;;;;;10297865;28;20229;-68
2023/12/31 11:44:47;;;;;;;2.15;2.05;;;;;;;;;;10306437;28;20216;-71
2023/12/31 11:49:52;;;;;;;3.15;2.08;;;;;;;;;;10302438;28;20712;-70
2023/12/31 11:54:53;;;;;;;2.03;2.03;;;;;;;;;;10305992;28;20711;-70
2023/12/31 11:59:54;;;;;;;5.57;2.22;;;;;;;;;;10314779;28;20260;-71
2023/12/31 12:05:00;;;;;;;2.33;2.13;;;;;;;;;;10310332;28;20220;-70
2023/12/31 12:10:01;;;;;;;2.80;2.10;;;;;;;;;;10306930;28;20240;-70
2023/12/31 12:15:06;;;;;;;2.28;2.10;;;;;;;;;;10309592;28;20313;-70
2023/12/31 12:20:08;;;;;;;2.85;2.65;;;;;;;;;;10325350;28;20232;-70
2023/12/31 12:25:09;;;;;;;2.58;2.17;;;;;;;;;;10319001;28;20196;-71
2023/12/31 12:30:10;;;;;;;2.83;2.13;;;;;;;;;;10317325;28;20225;-71
2023/12/31 12:35:13;;;;;;;2.17;1.92;;;;;;;;;;10311645;28;20180;-70
2023/12/31 12:40:19;;;;;;;1.73;1.63;;;;;;;;;;10303597;28;20225;-70
2023/12/31 12:45:22;;;;;;;2.97;1.70;;;;;;;;;;10301997;28;20970;-70
2023/12/31 12:50:26;;;;;;;2.45;2.35;;;;;;;;;;10300881;28;20224;-71
2023/12/31 12:55:27;;;;;;;2.35;2.25;;;;;;;;;;10317564;28;20301;-71
2023/12/31 13:00:28;;;;;;;2.53;2.00;;;;;;;;;;10288448;28;20225;-71
2023/12/31 13:05:29;;;;;;;1.85;1.75;;;;;;;;;;10289360;28;20219;-71
2023/12/31 13:10:30;;;;;;;2.65;2.47;;;;;;;;;;10307498;28;20220;-71
2023/12/31 13:15:33;;;;;;;2.28;2.10;;;;;;;;;;10302581;28;20596;-71
2023/12/31 13:20:35;;;;;;;3.15;2.60;;;;;;;;;;10307360;28;20366;-71
2023/12/31 13:25:36;;;;;;;2.30;2.20;;;;;;;;;;10319847;28;20213;-69
2023/12/31 13:30:37;;;;;;;3.63;2.90;;;;;;;;;;10305388;28;20240;-69
2023/12/31 13:35:38;;;;;;;3.90;1.67;;;;;;;;;;10298718;28;20465;-69
2023/12/31 13:40:39;;;;;;;1.80;1.70;;;;;;;;;;10280214;28;20221;-70
2023/12/31 13:45:41;;;;;;;3.13;2.67;;;;;;;;;;10282915;28;20237;-70
2023/12/31 13:50:42;;;;;;;2.63;2.42;;;;;;;;;;10284741;28;20284;-69
2023/12/31 13:55:43;;;;;;;1.83;1.73;;;;;;;;;;10283039;28;20220;-69
2023/12/31 14:00:51;;;;;;;2.90;2.70;;;;;;;;;;10289768;28;20225;-70
2023/12/31 14:05:52;;;;;;;6.10;5.30;;;;;;;;;;10295168;28;20735;-69
2023/12/31 14:10:53;;;;;;;4.63;2.65;;;;;;;;;;10304754;28;20239;-69
2023/12/31 14:15:54;;;;;;;3.97;3.72;;;;;;;;;;10304548;28;20220;-69
2023/12/31 14:20:55;;;;;;;4.13;3.83;;;;;;;;;;10297082;28;20217;-69
2023/12/31 14:25:56;;;;;;;8.52;7.63;;;;;;;;;;10308795;28;20208;-69
2023/12/31 14:30:57;;;;;;;5.03;4.63;;;;;;;;;;10302107;28;20224;-69
2023/12/31 14:35:58;;;;;;;4.18;3.97;;;;;;;;;;10313426;28;20209;-69
2023/12/31 14:41:00;;;;;;;5.30;4.80;;;;;;;;;;10307203;28;20213;-70
2023/12/31 14:46:01;;;;;;;5.35;3.72;;;;;;;;;;10319613;28;20236;-69
2023/12/31 14:51:03;;;;;;;3.28;2.35;;;;;;;;;;10310234;28;20221;-69
2023/12/31 14:56:04;;;;;;;2.58;2.47;;;;;;;;;;10315769;28;20220;-69
2023/12/31 15:01:05;;;;;;;1.80;1.70;;;;;;;;;;10314298;28;20220;-69
2023/12/31 15:06:09;;;;;;;1.80;1.48;;;;;;;;;;10316219;28;20231;-69
2023/12/31 15:11:11;;;;;;;1.52;1.52;;;;;;;;;;10314500;28;20220;-69
2023/12/31 15:16:12;;;;;;;1.92;1.83;;;;;;;;;;10305028;28;20216;-70
2023/12/31 15:21:14;;;;;;;2.47;1.75;;;;;;;;;;10310553;28;20716;-69
2023/12/31 15:26:15;;;;;;;1.40;1.40;;;;;;;;;;10312884;28;20634;-69
2023/12/31 15:31:17;;;;;;;1.48;1.30;;;;;;;;;;10293113;28;20225;-69
2023/12/31 15:36:18;;;;;;;1.52;1.40;;;;;;;;;;10301701;28;20259;-69
2023/12/31 15:41:19;;;;;;;1.80;1.67;;;;;;;;;;10317381;28;20216;-69
2023/12/31 15:46:21;;;;;;;2.47;2.28;;;;;;;;;;10307332;28;20220;-69
2023/12/31 15:51:23;;;;;;;1.45;1.45;;;;;;;;;;10284722;28;20240;-69
2023/12/31 15:56:24;;;;;;;2.80;2.40;;;;;;;;;;10295486;28;20408;-70
2023/12/31 16:01:25;;;;;;;3.25;2.53;;;;;;;;;;10281381;28;20235;-71
2023/12/31 16:06:26;;;;;;;1.95;1.85;;;;;;;;;;10299881;28;20961;-70
2023/12/31 16:11:27;;;;;;;2.25;1.50;;;;;;;;;;10315935;28;20245;-69
2023/12/31 16:16:29;;;;;;;2.45;2.35;;;;;;;;;;10299383;28;20317;-69
2023/12/31 16:21:30;;;;;;;3.40;3.10;;;;;;;;;;10299773;28;20331;-70
2023/12/31 16:26:31;;;;;;;2.92;2.72;;;;;;;;;;10296851;28;20243;-69
2023/12/31 16:31:32;;;;;;;4.35;3.33;;;;;;;;;;10285780;28;20233;-68
2023/12/31 16:36:33;;;;;;;5.35;3.75;;;;;;;;;;10311890;28;20216;-69
2023/12/31 16:41:34;;;;;;;4.93;4.03;;;;;;;;;;10299078;28;20243;-69
2023/12/31 16:46:35;;;;;;;3.47;3.08;;;;;;;;;;10314341;28;20240;-69
2023/12/31 16:51:36;;;;;;;1.80;1.80;;;;;;;;;;10298174;28;20683;-69
2023/12/31 16:56:37;;;;;;;2.70;2.30;;;;;;;;;;10297131;28;20216;-70
2023/12/31 17:01:38;;;;;;;2.20;2.10;;;;;;;;;;10309817;28;20224;-70
2023/12/31 17:06:41;;;;;;;3.47;2.80;;;;;;;;;;10304638;28;20236;-71
2023/12/31 17:11:44;;;;;;;1.65;1.55;;;;;;;;;;10317519;28;20413;-71
2023/12/31 17:16:45;;;;;;;0.90;0.82;;;;;;;;;;10317278;28;20762;-71
2023/12/31 17:21:46;;;;;;;2.42;0.90;;;;;;;;;;10301302;28;20220;-71
2023/12/31 17:26:49;;;;;;;6.88;6.13;;;;;;;;;;10244520;28;20708;-71
2023/12/31 17:31:50;;;;;;;3.30;3.00;;;;;;;;;;10227119;28;20237;-71
2023/12/31 17:36:53;;;;;;;0.73;0.73;;;;;;;;;;10221282;28;20190;-71
2023/12/31 17:41:55;;;;;;;0.70;0.70;;;;;;;;;;10250288;28;20202;-71
2023/12/31 17:46:56;;;;;;;1.30;1.30;;;;;;;;;;10246842;28;20210;-71
2023/12/31 17:51:57;;;;;;;1.63;1.52;;;;;;;;;;10230628;28;20585;-71
2023/12/31 17:56:58;;;;;;;1.70;0.60;;;;;;;;;;10225047;28;20194;-71
2023/12/31 18:01:59;;;;;;;0.50;0.50;;;;;;;;;;10235402;28;20216;-71
2023/12/31 18:07:00;;;;;;;0.70;0.70;;;;;;;;;;10256755;28;20182;-70
2023/12/31 18:12:01;;;;;;;0.40;0.40;;;;;;;;;;10262159;28;20221;-69
2023/12/31 18:17:02;;;;;;;1.27;0.60;;;;;;;;;;10275742;28;20189;-70
2023/12/31 18:22:04;;;;;;;0.38;0.35;;;;;;;;;;10260513;28;20213;-71
2023/12/31 18:27:05;;;;;;;0.50;0.50;;;;;;;;;;10267066;28;20684;-71
2023/12/31 18:32:06;;;;;;;2.47;0.50;;;;;;;;;;10272884;28;20222;-71
2023/12/31 18:37:07;;;;;;;0.40;0.40;;;;;;;;;;10265437;28;20927;-71
2023/12/31 18:42:09;;;;;;;0.60;0.60;;;;;;;;;;10282024;28;20318;-71
2023/12/31 18:47:10;;;;;;;0.50;0.50;;;;;;;;;;10286838;28;20178;-71
2023/12/31 18:52:11;;;;;;;0.82;0.50;;;;;;;;;;10265242;28;20664;-71
2023/12/31 18:57:13;;;;;;;0.82;0.73;;;;;;;;;;10261245;28;20277;-71
2023/12/31 19:02:15;;;;;;;1.23;1.23;;;;;;;;;;10276800;28;20243;-71
2023/12/31 19:07:16;;;;;;;1.60;1.50;;;;;;;;;;10262256;28;20189;-71
2023/12/31 19:12:17;;;;;;;1.35;1.33;;;;;;;;;;10283807;28;20213;-71
2023/12/31 19:17:19;;;;;;;1.23;1.23;;;;;;;;;;10254809;28;20189;-71
2023/12/31 19:22:20;;;;;;;3.78;2.92;;;;;;;;;;10255863;28;20677;-71
2023/12/31 19:27:21;;;;;;;2.67;2.35;;;;;;;;;;10268357;28;20217;-70
2023/12/31 19:32:22;;;;;;;4.35;2.05;;;;;;;;;;10263912;28;20229;-71
2023/12/31 19:37:23;;;;;;;4.88;2.78;;;;;;;;;;10262174;28;20563;-71
2023/12/31 19:42:24;;;;;;;3.53;3.13;;;;;;;;;;10264443;28;20240;-71
2023/12/31 19:47:25;;;;;;;3.17;2.95;;;;;;;;;;10270754;28;20197;-71
2023/12/31 19:52:28;;;;;;;2.10;2.00;;;;;;;;;;10285116;28;20298;-71
2023/12/31 19:57:29;;;;;;;2.53;1.95;;;;;;;;;;10263689;28;20235;-71
2023/12/31 20:02:32;;;;;;;4.03;3.05;;;;;;;;;;10269084;28;20247;-71
2023/12/31 20:07:33;;;;;;;16.30;10.25;;;;;;;;;;10268157;28;20189;-71
2023/12/31 20:12:34;;;;;;;19.08;11.75;;;;;;;;;;10274419;28;20750;-71
2023/12/31 20:17:36;;;;;;;13.27;9.63;;;;;;;;;;10247766;28;20178;-71
2023/12/31 20:22:37;;;;;;;12.85;8.02;;;;;;;;;;10287128;28;20765;-71
2023/12/31 20:27:38;;;;;;;11.60;7.43;;;;;;;;;;10268842;28;20232;-71
2023/12/31 20:32:39;;;;;;;5.40;4.57;;;;;;;;;;10278685;28;20284;-70
2023/12/31 20:37:40;;;;;;;4.75;2.88;;;;;;;;;;10272541;28;20669;-71
2023/12/31 20:42:41;;;;;;;4.20;3.88;;;;;;;;;;10276183;28;20221;-71
2023/12/31 20:47:51;;;;;;;6.18;3.60;;;;;;;;;;10270190;28;20235;-71
2023/12/31 20:52:52;;;;;;;4.28;1.05;;;;;;;;;;10266604;28;20226;-70
2023/12/31 20:57:53;;;;;;;2.30;1.73;;;;;;;;;;10259596;28;20220;-71
2023/12/31 21:02:54;;;;;;;1.63;1.17;;;;;;;;;;10260040;28;20309;-70
2023/12/31 21:07:56;;;;;;;3.65;1.65;;;;;;;;;;10258300;28;20649;-71
2023/12/31 21:12:57;;;;;;;3.95;1.85;;;;;;;;;;10263559;28;20227;-71
2023/12/31 21:17:58;;;;;;;7.50;3.38;;;;;;;;;;10253952;28;20300;-69
2023/12/31 21:23:03;;;;;;;6.65;4.65;;;;;;;;;;10252509;28;20297;-71
2023/12/31 21:28:07;;;;;;;14.00;7.95;;;;;;;;;;10266865;28;20602;-71
2023/12/31 21:33:09;;;;;;;6.00;4.72;;;;;;;;;;10281986;28;20316;-70
2023/12/31 21:38:11;;;;;;;9.35;6.40;;;;;;;;;;10273269;28;20264;-71
2023/12/31 21:43:12;;;;;;;10.32;6.55;;;;;;;;;;10262631;28;20193;-70
2023/12/31 21:48:13;;;;;;;11.10;5.20;;;;;;;;;;10272151;28;20210;-71
2023/12/31 21:53:14;;;;;;;9.27;6.00;;;;;;;;;;10254830;28;20761;-70
2023/12/31 21:58:15;;;;;;;8.57;4.03;;;;;;;;;;10258863;28;20296;-71
2023/12/31 22:03:16;;;;;;;9.50;5.20;;;;;;;;;;10256519;28;20678;-71
2023/12/31 22:08:17;;;;;;;13.85;6.13;;;;;;;;;;10252447;28;20214;-71
2023/12/31 22:13:18;;;;;;;13.13;6.65;;;;;;;;;;10272929;28;20232;-70
2023/12/31 22:18:19;;;;;;;39.47;20.13;;;;;;;;;;10238897;28;20244;-71
2023/12/31 22:23:23;;;;;;;16.23;9.60;;;;;;;;;;10252281;28;20910;-70
2023/12/31 22:28:24;;;;;;;8.13;2.95;;;;;;;;;;10279204;28;20232;-71
2023/12/31 22:33:24;;;;;;;4.30;3.30;;;;;;;;;;10275437;28;20348;-71
2023/12/31 22:38:26;;;;;;;8.60;2.67;;;;;;;;;;10274078;28;20267;-71
2023/12/31 22:43:27;;;;;;;4.15;2.85;;;;;;;;;;10271898;28;20208;-71
2023/12/31 22:48:28;;;;;;;3.58;3.20;;;;;;;;;;10256501;28;20230;-71
2023/12/31 22:53:29;;;;;;;7.70;3.70;;;;;;;;;;10248900;28;20205;-71
2023/12/31 22:58:30;;;;;;;5.53;3.33;;;;;;;;;;10272113;28;20834;-71
2023/12/31 23:03:31;;;;;;;6.95;3.53;;;;;;;;;;10269798;28;20218;-70
2023/12/31 23:08:33;;;;;;;46.00;23.48;;;;;;;;;;10265728;28;20201;-71
2023/12/31 23:13:36;;;;;;;235.45;94.78;;;;;;;;;;10272006;28;20282;-71
2023/12/31 23:18:37;;;;;;;262.33;114.57;;;;;;;;;;10239067;28;20198;-71
2023/12/31 23:23:38;;;;;;;334.67;132.73;;;;;;;;;;10271620;28;20185;-71
2023/12/31 23:28:39;;;;;;;190.93;78.07;;;;;;;;;;10269312;28;20229;-71
2023/12/31 23:33:40;;;;;;;101.43;40.50;;;;;;;;;;10251148;28;20226;-70
2023/12/31 23:38:41;;;;;;;32.28;17.27;;;;;;;;;;10241839;28;20229;-70
2023/12/31 23:43:42;;;;;;;21.58;9.88;;;;;;;;;;10230218;28;20209;-70
2023/12/31 23:48:43;;;;;;;36.63;15.10;;;;;;;;;;10235641;28;20216;-71
2023/12/31 23:53:44;;;;;;;82.80;32.70;;;;;;;;;;10253991;28;20221;-69
2023/12/31 23:58:45;;;;;;;60.78;24.63;;;;;;;;;;10242144;28;20668;-70
